Terminal Aerodrome Forecast
Issued by NWS Newport/Morehead City, NC

Home | Current Version | Previous Version | Text Only | Print | Product List | Glossary Off
Versions: 1 2 3 4 5 6 7 8 9 10 11 12 13 14 15 16

848
FTUS42 KMHX 230746 AAA
TAFEWN
TAF AMD
KEWN 230746Z 2308/2406 VRB04KT P6SM SCT015
      TEMPO 2310/2314 BKN015
     FM231400 33005KT P6SM VCSH BKN020
     FM231600 33010KT P6SM VCTS BKN025CB
     FM232300 34006KT P6SM OVC050=

USA.gov is the U.S. government's official web portal to all federal, state and local government web resources and services.